createdAt,value
2023-05-12T00:00:44.801Z,94873.00
2023-05-12T00:01:44.372Z,94875.00
2023-05-12T00:02:44.574Z,94875.00
2023-05-12T00:03:44.694Z,94873.00
2023-05-12T00:04:44.626Z,94873.00
2023-05-12T00:05:44.803Z,94877.00
2023-05-12T00:06:44.677Z,94875.00
2023-05-12T00:07:44.769Z,94875.00
2023-05-12T00:08:44.842Z,94875.00
2023-05-12T00:09:44.897Z,94875.00
2023-05-12T00:10:45.344Z,94875.00
2023-05-12T00:11:44.999Z,94875.00
2023-05-12T00:12:45.075Z,94877.00
2023-05-12T00:13:45.210Z,94875.00
2023-05-12T00:14:45.194Z,94873.00
2023-05-12T00:15:45.315Z,94873.00
2023-05-12T00:16:45.320Z,94871.00
2023-05-12T00:17:45.448Z,94873.00
2023-05-12T00:18:45.423Z,94871.00
2023-05-12T00:19:45.434Z,94873.00
2023-05-12T00:20:45.809Z,94873.00
2023-05-12T00:21:45.576Z,94873.00
2023-05-12T00:22:45.656Z,94873.00
2023-05-12T00:23:45.697Z,94873.00
2023-05-12T00:24:45.752Z,94875.00
2023-05-12T00:25:45.820Z,94875.00
2023-05-12T00:26:45.864Z,94877.00
2023-05-12T00:27:45.932Z,94875.00
2023-05-12T00:28:45.952Z,94879.00
2023-05-12T00:29:46.055Z,94879.00
2023-05-12T00:30:46.101Z,94881.00
2023-05-12T00:31:46.195Z,94881.00
2023-05-12T00:32:46.340Z,94882.00
2023-05-12T00:33:46.286Z,94882.00
2023-05-12T00:34:46.332Z,94882.00
2023-05-12T00:35:46.810Z,94882.00
2023-05-12T00:36:46.456Z,94882.00
2023-05-12T00:37:46.537Z,94879.00
2023-05-12T00:38:46.608Z,94879.00
2023-05-12T00:39:46.638Z,94877.00
2023-05-12T00:40:46.805Z,94877.00
2023-05-12T00:41:46.764Z,94877.00
2023-05-12T00:42:46.791Z,94873.00
2023-05-12T00:43:46.842Z,94875.00
2023-05-12T00:44:46.862Z,94873.00
2023-05-12T00:45:47.346Z,94871.00
2023-05-12T00:46:46.953Z,94871.00
2023-05-12T00:47:47.093Z,94871.00
2023-05-12T00:48:47.107Z,94873.00
2023-05-12T00:49:47.160Z,94873.00
2023-05-12T00:50:47.197Z,94873.00
2023-05-12T00:51:47.251Z,94871.00
2023-05-12T00:52:48.837Z,94871.00
2023-05-12T00:53:49.828Z,94871.00
2023-05-12T00:54:47.332Z,94871.00
2023-05-12T00:55:47.873Z,94869.00
2023-05-12T00:56:47.338Z,94871.00
2023-05-12T00:57:47.347Z,94867.00
2023-05-12T00:58:47.381Z,94867.00
2023-05-12T00:59:47.318Z,94867.00
2023-05-12T01:00:47.382Z,94865.00
2023-05-12T01:01:47.302Z,94861.00
2023-05-12T01:02:47.465Z,94859.00
2023-05-12T01:03:47.314Z,94861.00
2023-05-12T01:04:47.292Z,94861.00
2023-05-12T01:05:47.253Z,94861.00
2023-05-12T01:06:47.259Z,94861.00
2023-05-12T01:07:47.306Z,94861.00
2023-05-12T01:08:47.237Z,94861.00
2023-05-12T01:09:47.253Z,94861.00
2023-05-12T01:10:47.330Z,94859.00
2023-05-12T01:11:47.241Z,94859.00
2023-05-12T01:12:47.236Z,94857.00
2023-05-12T01:13:47.226Z,94857.00
2023-05-12T01:14:47.195Z,94857.00
2023-05-12T01:15:47.333Z,94857.00
2023-05-12T01:16:47.210Z,94857.00
2023-05-12T01:17:47.213Z,94859.00
2023-05-12T01:18:47.289Z,94857.00
2023-05-12T01:19:47.148Z,94859.00
2023-05-12T01:20:47.138Z,94857.00
2023-05-12T01:21:47.154Z,94857.00
2023-05-12T01:22:47.181Z,94855.00
2023-05-12T01:23:47.137Z,94859.00
2023-05-12T01:24:47.121Z,94859.00
2023-05-12T01:25:47.325Z,94859.00
2023-05-12T01:26:47.108Z,94863.00
2023-05-12T01:27:47.121Z,94857.00
2023-05-12T01:28:47.111Z,94857.00
2023-05-12T01:29:47.094Z,94857.00
2023-05-12T01:30:47.415Z,94857.00
2023-05-12T01:31:47.135Z,94851.00
2023-05-12T01:32:47.104Z,94855.00
2023-05-12T01:33:47.073Z,94857.00
2023-05-12T01:34:47.080Z,94853.00
2023-05-12T01:35:47.364Z,94855.00
2023-05-12T01:36:47.055Z,94857.00
2023-05-12T01:37:47.027Z,94855.00
2023-05-12T01:38:47.040Z,94855.00
2023-05-12T01:39:47.020Z,94857.00
2023-05-12T01:40:47.019Z,94855.00
2023-05-12T01:41:46.982Z,94857.00
2023-05-12T01:42:46.995Z,94857.00
2023-05-12T01:43:47.005Z,94857.00
2023-05-12T01:44:47.002Z,94859.00
2023-05-12T01:45:46.974Z,94857.00
2023-05-12T01:46:47.110Z,94859.00
2023-05-12T01:47:47.026Z,94859.00
2023-05-12T01:48:46.943Z,94857.00
2023-05-12T01:49:46.969Z,94859.00
2023-05-12T01:50:46.951Z,94859.00
2023-05-12T01:51:46.973Z,94859.00
2023-05-12T01:52:46.968Z,94859.00
2023-05-12T01:53:46.969Z,94861.00
2023-05-12T01:54:46.919Z,94861.00
2023-05-12T01:55:46.911Z,94863.00
2023-05-12T01:56:46.913Z,94863.00
2023-05-12T01:57:46.931Z,94861.00
2023-05-12T01:58:46.925Z,94861.00
2023-05-12T01:59:46.905Z,94865.00
2023-05-12T02:00:46.888Z,94861.00
2023-05-12T02:01:46.976Z,94865.00
2023-05-12T02:02:46.968Z,94865.00
2023-05-12T02:03:46.928Z,94865.00
2023-05-12T02:04:46.869Z,94865.00
2023-05-12T02:05:46.914Z,94865.00
2023-05-12T02:06:46.875Z,94865.00
2023-05-12T02:07:46.860Z,94865.00
2023-05-12T02:08:46.855Z,94865.00
2023-05-12T02:09:46.841Z,94867.00
2023-05-12T02:10:46.856Z,94867.00
2023-05-12T02:11:46.839Z,94865.00
2023-05-12T02:12:46.844Z,94867.00
2023-05-12T02:13:46.829Z,94867.00
2023-05-12T02:14:46.824Z,94869.00
2023-05-12T02:15:46.856Z,94867.00
2023-05-12T02:16:46.973Z,94867.00
2023-05-12T02:17:46.854Z,94869.00
2023-05-12T02:18:46.884Z,94869.00
2023-05-12T02:19:46.823Z,94869.00
2023-05-12T02:20:46.828Z,94873.00
2023-05-12T02:21:46.832Z,94869.00
2023-05-12T02:22:46.831Z,94869.00
2023-05-12T02:23:46.834Z,94869.00
2023-05-12T02:24:46.768Z,94867.00
2023-05-12T02:25:46.777Z,94867.00
2023-05-12T02:26:46.788Z,94867.00
2023-05-12T02:27:46.805Z,94865.00
2023-05-12T02:28:46.754Z,94865.00
2023-05-12T02:29:47.393Z,94869.00
2023-05-12T02:30:47.394Z,94867.00
2023-05-12T02:31:46.791Z,94867.00
2023-05-12T02:32:46.749Z,94867.00
2023-05-12T02:33:46.738Z,94867.00
2023-05-12T02:34:46.728Z,94867.00
2023-05-12T02:35:46.710Z,94865.00
2023-05-12T02:36:46.755Z,94865.00
2023-05-12T02:37:46.721Z,94865.00
2023-05-12T02:38:46.720Z,94865.00
2023-05-12T02:39:46.692Z,94865.00
2023-05-12T02:40:47.404Z,94865.00
2023-05-12T02:41:46.728Z,94863.00
2023-05-12T02:42:46.718Z,94865.00
2023-05-12T02:43:46.716Z,94863.00
2023-05-12T02:44:46.699Z,94861.00
2023-05-12T02:45:46.740Z,94863.00
2023-05-12T02:46:46.682Z,94861.00
2023-05-12T02:47:46.755Z,94865.00
2023-05-12T02:48:46.698Z,94865.00
2023-05-12T02:49:46.674Z,94861.00
2023-05-12T02:50:46.688Z,94865.00
2023-05-12T02:51:46.893Z,94861.00
2023-05-12T02:52:46.692Z,94861.00
2023-05-12T02:53:46.703Z,94859.00
2023-05-12T02:54:46.673Z,94859.00
2023-05-12T02:55:46.682Z,94859.00
2023-05-12T02:56:46.692Z,94859.00
2023-05-12T02:57:46.677Z,94859.00
2023-05-12T02:58:46.675Z,94857.00
2023-05-12T02:59:46.688Z,94855.00
2023-05-12T03:00:48.660Z,94861.00
2023-05-12T03:01:47.772Z,94857.00
2023-05-12T03:02:46.792Z,94855.00
2023-05-12T03:03:46.973Z,94857.00
2023-05-12T03:04:46.653Z,94855.00
2023-05-12T03:05:46.655Z,94857.00
2023-05-12T03:06:46.889Z,94855.00
2023-05-12T03:07:46.655Z,94855.00
2023-05-12T03:08:46.666Z,94851.00
2023-05-12T03:09:46.650Z,94851.00
2023-05-12T03:10:46.650Z,94853.00
2023-05-12T03:11:46.897Z,94851.00
2023-05-12T03:12:46.648Z,94851.00
2023-05-12T03:13:46.608Z,94851.00
2023-05-12T03:14:46.613Z,94853.00
2023-05-12T03:15:46.618Z,94847.00
2023-05-12T03:16:46.996Z,94849.00
2023-05-12T03:17:46.696Z,94855.00
2023-05-12T03:18:46.697Z,94857.00
2023-05-12T03:19:46.694Z,94851.00
2023-05-12T03:20:46.733Z,94859.00
2023-05-12T03:21:46.938Z,94855.00
2023-05-12T03:22:46.745Z,94855.00
2023-05-12T03:23:46.769Z,94861.00
2023-05-12T03:24:46.811Z,94857.00
2023-05-12T03:25:46.777Z,94853.00
2023-05-12T03:26:46.918Z,94855.00
2023-05-12T03:27:46.793Z,94857.00
2023-05-12T03:28:46.822Z,94857.00
2023-05-12T03:29:46.854Z,94859.00
2023-05-12T03:30:46.893Z,94861.00
2023-05-12T03:31:46.996Z,94861.00
2023-05-12T03:32:46.957Z,94863.00
2023-05-12T03:33:46.909Z,94863.00
2023-05-12T03:34:46.917Z,94863.00
2023-05-12T03:35:46.948Z,94861.00
2023-05-12T03:36:46.927Z,94861.00
2023-05-12T03:37:46.980Z,94861.00
2023-05-12T03:38:46.965Z,94861.00
2023-05-12T03:39:47.011Z,94861.00
2023-05-12T03:40:46.986Z,94859.00
2023-05-12T03:41:47.427Z,94859.00
2023-05-12T03:42:47.008Z,94859.00
2023-05-12T03:43:46.989Z,94857.00
2023-05-12T03:44:46.984Z,94857.00
2023-05-12T03:45:46.972Z,94857.00
2023-05-12T03:46:47.086Z,94855.00
2023-05-12T03:47:47.065Z,94857.00
2023-05-12T03:48:46.973Z,94855.00
2023-05-12T03:49:46.941Z,94853.00
2023-05-12T03:50:46.959Z,94857.00
2023-05-12T03:51:46.970Z,94855.00
2023-05-12T03:52:46.974Z,94855.00
2023-05-12T03:53:46.984Z,94855.00
2023-05-12T03:54:47.013Z,94857.00
2023-05-12T03:55:47.024Z,94853.00
2023-05-12T03:56:47.070Z,94857.00
2023-05-12T03:57:47.070Z,94855.00
2023-05-12T03:58:47.064Z,94853.00
2023-05-12T03:59:47.050Z,94853.00
2023-05-12T04:00:47.044Z,94853.00
2023-05-12T04:01:47.071Z,94853.00
2023-05-12T04:02:47.059Z,94857.00
2023-05-12T04:03:47.101Z,94855.00
2023-05-12T04:04:46.999Z,94857.00
2023-05-12T04:05:46.984Z,94857.00
2023-05-12T04:06:47.024Z,94857.00
2023-05-12T04:07:47.003Z,94857.00
2023-05-12T04:08:46.982Z,94857.00
2023-05-12T04:09:47.002Z,94859.00
2023-05-12T04:10:47.004Z,94857.00
2023-05-12T04:11:46.967Z,94859.00
2023-05-12T04:12:46.981Z,94861.00
2023-05-12T04:13:46.980Z,94859.00
2023-05-12T04:14:46.960Z,94859.00
2023-05-12T04:15:46.968Z,94859.00
2023-05-12T04:16:47.008Z,94861.00
2023-05-12T04:17:46.974Z,94861.00
2023-05-12T04:18:46.994Z,94863.00
2023-05-12T04:19:46.959Z,94865.00
2023-05-12T04:20:46.952Z,94861.00
2023-05-12T04:21:46.968Z,94863.00
2023-05-12T04:22:46.898Z,94863.00
2023-05-12T04:23:46.917Z,94865.00
2023-05-12T04:24:46.918Z,94863.00
2023-05-12T04:25:46.921Z,94863.00
2023-05-12T04:26:46.947Z,94863.00
2023-05-12T04:27:46.934Z,94865.00
2023-05-12T04:28:46.897Z,94865.00
2023-05-12T04:29:46.889Z,94869.00
2023-05-12T04:30:46.908Z,94871.00
2023-05-12T04:31:47.017Z,94867.00
2023-05-12T04:32:46.990Z,94871.00
2023-05-12T04:33:48.315Z,94873.00
2023-05-12T04:34:46.895Z,94871.00
2023-05-12T04:35:46.948Z,94873.00
2023-05-12T04:36:46.926Z,94873.00
2023-05-12T04:37:46.902Z,94873.00
2023-05-12T04:38:46.923Z,94871.00
2023-05-12T04:39:46.882Z,94871.00
2023-05-12T04:40:46.910Z,94873.00
2023-05-12T04:41:46.943Z,94871.00
2023-05-12T04:42:46.888Z,94869.00
2023-05-12T04:44:46.890Z,94871.00
2023-05-12T04:45:46.895Z,94871.00
2023-05-12T04:46:46.970Z,94873.00
2023-05-12T04:47:46.904Z,94873.00
2023-05-12T04:48:46.854Z,94873.00
2023-05-12T04:49:46.827Z,94873.00
2023-05-12T04:50:46.834Z,94873.00
2023-05-12T04:51:46.846Z,94871.00
2023-05-12T04:52:46.817Z,94875.00
2023-05-12T04:53:46.857Z,94877.00
2023-05-12T04:54:46.778Z,94877.00
2023-05-12T04:55:46.834Z,94877.00
2023-05-12T04:56:47.008Z,94877.00
2023-05-12T04:57:46.782Z,94875.00
2023-05-12T04:58:46.762Z,94877.00
2023-05-12T04:59:46.749Z,94879.00
2023-05-12T05:00:46.756Z,94882.00
2023-05-12T05:01:47.172Z,94881.00
2023-05-12T05:02:46.810Z,94882.00
2023-05-12T05:03:46.776Z,94888.00
2023-05-12T05:04:46.726Z,94888.00
2023-05-12T05:05:46.732Z,94884.00
2023-05-12T05:06:46.720Z,94888.00
2023-05-12T05:07:46.994Z,94886.00
2023-05-12T05:08:46.683Z,94888.00
2023-05-12T05:09:46.676Z,94886.00
2023-05-12T05:10:46.660Z,94886.00
2023-05-12T05:11:46.666Z,94886.00
2023-05-12T05:12:46.673Z,94888.00
2023-05-12T05:13:46.643Z,94886.00
2023-05-12T05:14:46.693Z,94888.00
2023-05-12T05:15:46.681Z,94888.00
2023-05-12T05:16:46.644Z,94886.00
2023-05-12T05:17:46.645Z,94886.00
2023-05-12T05:18:46.868Z,94888.00
2023-05-12T05:19:57.880Z,94888.00
2023-05-12T05:20:54.662Z,94886.00
2023-05-12T05:21:47.602Z,94888.00
2023-05-12T05:22:46.995Z,94888.00
2023-05-12T05:23:46.600Z,94886.00
2023-05-12T05:24:46.583Z,94888.00
2023-05-12T05:25:46.569Z,94886.00
2023-05-12T05:26:46.565Z,94884.00
2023-05-12T05:27:46.538Z,94888.00
2023-05-12T05:28:46.584Z,94888.00
2023-05-12T05:29:46.545Z,94890.00
2023-05-12T05:30:46.541Z,94888.00
2023-05-12T05:31:46.644Z,94890.00
2023-05-12T05:32:46.528Z,94888.00
2023-05-12T05:33:46.505Z,94890.00
2023-05-12T05:34:46.480Z,94892.00
2023-05-12T05:35:46.507Z,94888.00
2023-05-12T05:36:46.497Z,94888.00
2023-05-12T05:37:46.509Z,94892.00
2023-05-12T05:38:46.496Z,94886.00
2023-05-12T05:39:46.459Z,94886.00
2023-05-12T05:40:53.785Z,94882.00
2023-05-12T05:41:47.453Z,94888.00
2023-05-12T05:42:46.486Z,94886.00
2023-05-12T05:43:46.442Z,94882.00
2023-05-12T05:44:46.634Z,94884.00
2023-05-12T05:45:46.431Z,94888.00
2023-05-12T05:46:46.524Z,94886.00
2023-05-12T05:47:46.496Z,94884.00
2023-05-12T05:48:46.407Z,94882.00
2023-05-12T05:49:46.388Z,94881.00
2023-05-12T05:50:46.436Z,94884.00
2023-05-12T05:51:46.373Z,94890.00
2023-05-12T05:52:46.378Z,94894.00
2023-05-12T05:53:46.384Z,94892.00
2023-05-12T05:54:46.374Z,94892.00
2023-05-12T05:55:46.391Z,94890.00
2023-05-12T05:56:46.487Z,94888.00
2023-05-12T05:57:46.990Z,94890.00
2023-05-12T05:58:46.554Z,94886.00
2023-05-12T05:59:46.631Z,94892.00
2023-05-12T06:00:46.643Z,94892.00
2023-05-12T06:01:46.694Z,94892.00
2023-05-12T06:02:47.213Z,94890.00
2023-05-12T06:03:46.863Z,94888.00
2023-05-12T06:04:46.747Z,94886.00
2023-05-12T06:05:46.814Z,94890.00
2023-05-12T06:06:46.824Z,94888.00
2023-05-12T06:07:46.903Z,94888.00
2023-05-12T06:08:46.876Z,94890.00
2023-05-12T06:09:46.941Z,94890.00
2023-05-12T06:10:46.975Z,94894.00
2023-05-12T06:11:47.003Z,94892.00
2023-05-12T06:12:47.526Z,94890.00
2023-05-12T06:13:47.061Z,94890.00
2023-05-12T06:14:47.096Z,94892.00
2023-05-12T06:15:47.135Z,94892.00
2023-05-12T06:16:47.253Z,94892.00
2023-05-12T06:17:47.523Z,94890.00
2023-05-12T06:18:47.332Z,94890.00
2023-05-12T06:19:47.315Z,94888.00
2023-05-12T06:20:47.408Z,94890.00
2023-05-12T06:21:47.398Z,94890.00
2023-05-12T06:22:47.522Z,94888.00
2023-05-12T06:23:47.525Z,94890.00
2023-05-12T06:24:47.547Z,94888.00
2023-05-12T06:25:47.555Z,94890.00
2023-05-12T06:26:47.657Z,94890.00
2023-05-12T06:27:47.673Z,94890.00
2023-05-12T06:28:47.713Z,94892.00
2023-05-12T06:29:47.743Z,94888.00
2023-05-12T06:30:47.805Z,94888.00
2023-05-12T06:31:47.906Z,94890.00
2023-05-12T06:32:47.910Z,94894.00
2023-05-12T06:33:47.958Z,94892.00
2023-05-12T06:34:47.990Z,94892.00
2023-05-12T06:35:48.030Z,94892.00
2023-05-12T06:36:48.096Z,94896.00
2023-05-12T06:37:48.498Z,94892.00
2023-05-12T06:38:48.201Z,94894.00
2023-05-12T06:39:48.256Z,94892.00
2023-05-12T06:40:48.315Z,94892.00
2023-05-12T06:41:48.338Z,94892.00
2023-05-12T06:42:48.401Z,94894.00
2023-05-12T06:43:48.429Z,94894.00
2023-05-12T06:44:48.507Z,94894.00
2023-05-12T06:45:48.572Z,94896.00
2023-05-12T06:46:48.632Z,94894.00
2023-05-12T06:47:48.709Z,94894.00
2023-05-12T06:48:48.729Z,94896.00
2023-05-12T06:49:48.787Z,94896.00
2023-05-12T06:50:48.811Z,94898.00
2023-05-12T06:51:48.860Z,94898.00
2023-05-12T06:52:49.039Z,94896.00
2023-05-12T06:53:48.971Z,94902.00
2023-05-12T06:54:49.000Z,94898.00
2023-05-12T06:55:49.078Z,94890.00
2023-05-12T06:56:49.109Z,94884.00
2023-05-12T06:57:49.154Z,94892.00
2023-05-12T06:58:49.788Z,94890.00
2023-05-12T06:59:49.222Z,94894.00
2023-05-12T07:00:49.259Z,94890.00
2023-05-12T07:01:49.336Z,94890.00
2023-05-12T07:02:49.565Z,94892.00
2023-05-12T07:03:49.335Z,94892.00
2023-05-12T07:04:49.302Z,94890.00
2023-05-12T07:05:49.357Z,94890.00
2023-05-12T07:06:49.357Z,94886.00
2023-05-12T07:07:49.374Z,94890.00
2023-05-12T07:08:50.389Z,94888.00
2023-05-12T07:09:49.407Z,94890.00
2023-05-12T07:10:49.451Z,94888.00
2023-05-12T07:11:49.520Z,94890.00
2023-05-12T07:12:50.027Z,94888.00
2023-05-12T07:13:49.600Z,94890.00
2023-05-12T07:14:49.693Z,94888.00
2023-05-12T07:15:49.759Z,94888.00
2023-05-12T07:16:49.738Z,94888.00
2023-05-12T07:17:49.863Z,94882.00
2023-05-12T07:18:49.751Z,94881.00
2023-05-12T07:19:49.774Z,94881.00
2023-05-12T07:20:49.762Z,94877.00
2023-05-12T07:21:49.784Z,94879.00
2023-05-12T07:22:49.754Z,94875.00
2023-05-12T07:23:49.794Z,94877.00
2023-05-12T07:24:49.832Z,94879.00
2023-05-12T07:25:49.818Z,94875.00
2023-05-12T07:26:49.864Z,94877.00
2023-05-12T07:27:49.867Z,94875.00
2023-05-12T07:28:49.896Z,94871.00
2023-05-12T07:29:49.913Z,94873.00
2023-05-12T07:30:50.182Z,94871.00
2023-05-12T07:31:50.104Z,94871.00
2023-05-12T07:32:50.054Z,94869.00
2023-05-12T07:33:50.046Z,94869.00
2023-05-12T07:34:50.071Z,94869.00
2023-05-12T07:35:50.084Z,94869.00
2023-05-12T07:36:50.137Z,94865.00
2023-05-12T07:37:50.563Z,94865.00
2023-05-12T07:38:50.234Z,94865.00
2023-05-12T07:39:50.252Z,94861.00
2023-05-12T07:40:50.306Z,94859.00
2023-05-12T07:41:50.373Z,94863.00
2023-05-12T07:42:50.414Z,94861.00
2023-05-12T07:43:50.449Z,94861.00
2023-05-12T07:44:50.510Z,94859.00
2023-05-12T07:45:50.548Z,94857.00
2023-05-12T07:46:50.622Z,94859.00
2023-05-12T07:47:50.640Z,94861.00
2023-05-12T07:48:50.677Z,94863.00
2023-05-12T07:49:50.746Z,94863.00
2023-05-12T07:50:50.730Z,94861.00
2023-05-12T07:51:50.775Z,94859.00
2023-05-12T07:52:50.827Z,94859.00
2023-05-12T07:53:50.797Z,94857.00
2023-05-12T07:54:50.844Z,94861.00
2023-05-12T07:55:50.853Z,94857.00
2023-05-12T07:56:50.857Z,94859.00
2023-05-12T07:57:50.896Z,94857.00
2023-05-12T07:58:50.870Z,94851.00
2023-05-12T07:59:50.845Z,94855.00
2023-05-12T08:00:50.868Z,94851.00
2023-05-12T08:01:50.890Z,94855.00
2023-05-12T08:02:51.213Z,94851.00
2023-05-12T08:03:50.935Z,94853.00
2023-05-12T08:04:50.884Z,94855.00
2023-05-12T08:05:50.879Z,94849.00
2023-05-12T08:06:50.891Z,94851.00
2023-05-12T08:07:50.871Z,94853.00
2023-05-12T08:08:51.082Z,94851.00
2023-05-12T08:09:50.879Z,94851.00
2023-05-12T08:10:50.858Z,94851.00
2023-05-12T08:11:52.014Z,94851.00
2023-05-12T08:12:50.846Z,94849.00
2023-05-12T08:13:50.904Z,94845.00
2023-05-12T08:14:50.869Z,94843.00
2023-05-12T08:15:50.893Z,94849.00
2023-05-12T08:16:50.962Z,94847.00
2023-05-12T08:17:50.990Z,94849.00
2023-05-12T08:18:51.143Z,94845.00
2023-05-12T08:19:50.989Z,94845.00
2023-05-12T08:20:51.022Z,94843.00
2023-05-12T08:21:51.056Z,94845.00
2023-05-12T08:22:51.118Z,94843.00
2023-05-12T08:23:51.544Z,94843.00
2023-05-12T08:24:51.166Z,94841.00
2023-05-12T08:25:51.202Z,94839.00
2023-05-12T08:26:51.228Z,94839.00
2023-05-12T08:27:51.341Z,94843.00
2023-05-12T08:28:51.574Z,94839.00
2023-05-12T08:29:51.390Z,94841.00
2023-05-12T08:30:51.420Z,94837.00
2023-05-12T08:31:51.508Z,94841.00
2023-05-12T08:32:51.592Z,94841.00
2023-05-12T08:34:02.772Z,94839.00
2023-05-12T08:34:52.851Z,94841.00
2023-05-12T08:35:51.561Z,94841.00
2023-05-12T08:36:51.571Z,94841.00
2023-05-12T08:37:51.595Z,94845.00
2023-05-12T08:38:51.568Z,94845.00
2023-05-12T08:39:51.600Z,94841.00
2023-05-12T08:40:51.518Z,94841.00
2023-05-12T08:41:51.533Z,94841.00
2023-05-12T08:42:51.532Z,94843.00
2023-05-12T08:43:51.543Z,94841.00
2023-05-12T08:44:51.545Z,94843.00
2023-05-12T08:45:51.592Z,94841.00
2023-05-12T08:46:51.685Z,94839.00
2023-05-12T08:47:51.678Z,94841.00
2023-05-12T08:48:51.689Z,94845.00
2023-05-12T08:49:52.567Z,94843.00
2023-05-12T08:50:51.809Z,94843.00
2023-05-12T08:51:57.789Z,94845.00
2023-05-12T08:52:52.740Z,94843.00
2023-05-12T08:53:51.708Z,94839.00
2023-05-12T08:54:55.869Z,94837.00
2023-05-12T08:57:08.955Z,94841.00
2023-05-12T08:57:51.711Z,94839.00
2023-05-12T08:58:52.099Z,94837.00
2023-05-12T08:59:51.661Z,94841.00
2023-05-12T09:00:51.697Z,94841.00
2023-05-12T09:01:51.713Z,94841.00
2023-05-12T09:02:53.978Z,94841.00
2023-05-12T09:03:51.917Z,94841.00
2023-05-12T09:04:51.932Z,94839.00
2023-05-12T09:05:51.927Z,94839.00
2023-05-12T09:06:54.365Z,94837.00
2023-05-12T09:07:51.954Z,94839.00
2023-05-12T09:08:52.108Z,94835.00
2023-05-12T09:09:51.948Z,94835.00
2023-05-12T09:10:51.939Z,94835.00
2023-05-12T09:11:51.932Z,94843.00
2023-05-12T09:12:51.926Z,94841.00
2023-05-12T09:13:52.617Z,94843.00
2023-05-12T09:14:51.953Z,94841.00
2023-05-12T09:15:51.943Z,94841.00
2023-05-12T09:16:52.134Z,94837.00
2023-05-12T09:17:51.899Z,94839.00
2023-05-12T09:18:52.206Z,94837.00
2023-05-12T09:19:51.870Z,94837.00
2023-05-12T09:20:51.892Z,94837.00
2023-05-12T09:21:51.844Z,94837.00
2023-05-12T09:22:52.043Z,94832.00
2023-05-12T09:23:52.103Z,94834.00
2023-05-12T09:24:51.839Z,94832.00
2023-05-12T09:25:51.832Z,94830.00
2023-05-12T09:26:51.855Z,94834.00
2023-05-12T09:27:51.852Z,94832.00
2023-05-12T09:28:52.080Z,94834.00
2023-05-12T09:30:51.815Z,94832.00
2023-05-12T09:31:51.821Z,94830.00
2023-05-12T09:32:51.833Z,94835.00
2023-05-12T09:33:51.799Z,94832.00
2023-05-12T09:34:51.777Z,94832.00
2023-05-12T09:35:51.795Z,94834.00
2023-05-12T09:36:51.755Z,94834.00
2023-05-12T09:37:51.790Z,94837.00
2023-05-12T09:38:52.146Z,94834.00
2023-05-12T09:39:51.751Z,94837.00
2023-05-12T09:40:52.742Z,94834.00
2023-05-12T09:41:51.741Z,94830.00
2023-05-12T09:42:51.720Z,94834.00
2023-05-12T09:43:51.726Z,94834.00
2023-05-12T09:44:51.717Z,94834.00
2023-05-12T09:45:51.742Z,94832.00
2023-05-12T09:46:51.709Z,94834.00
2023-05-12T09:47:51.727Z,94832.00
2023-05-12T09:48:52.150Z,94832.00
2023-05-12T09:49:51.708Z,94834.00
2023-05-12T09:50:51.681Z,94837.00
2023-05-12T09:51:51.663Z,94830.00
2023-05-12T09:52:51.663Z,94826.00
2023-05-12T09:53:51.661Z,94826.00
2023-05-12T09:54:51.773Z,94828.00
2023-05-12T09:55:51.709Z,94830.00
2023-05-12T09:56:51.776Z,94830.00
2023-05-12T09:57:51.831Z,94832.00
2023-05-12T09:58:51.872Z,94826.00
2023-05-12T09:59:51.900Z,94824.00
2023-05-12T10:01:17.663Z,94824.00
2023-05-12T10:01:53.030Z,94824.00
2023-05-12T10:02:51.969Z,94826.00
2023-05-12T10:03:52.160Z,94828.00
2023-05-12T10:04:51.957Z,94824.00
2023-05-12T10:05:51.915Z,94820.00
2023-05-12T10:06:51.914Z,94816.00
2023-05-12T10:07:51.931Z,94816.00
2023-05-12T10:08:52.148Z,94814.00
2023-05-12T10:09:51.921Z,94810.00
2023-05-12T10:10:51.962Z,94808.00
2023-05-12T10:11:53.782Z,94808.00
2023-05-12T10:12:51.967Z,94806.00
2023-05-12T10:13:52.139Z,94806.00
2023-05-12T10:14:51.972Z,94808.00
2023-05-12T10:15:51.973Z,94808.00
2023-05-12T10:16:52.094Z,94808.00
2023-05-12T10:17:53.905Z,94806.00
2023-05-12T10:18:52.177Z,94806.00
2023-05-12T10:19:51.986Z,94808.00
2023-05-12T10:20:51.981Z,94806.00
2023-05-12T10:21:52.011Z,94808.00
2023-05-12T10:22:51.991Z,94804.00
2023-05-12T10:23:51.989Z,94804.00
2023-05-12T10:24:51.979Z,94804.00
2023-05-12T10:25:51.997Z,94804.00
2023-05-12T10:26:52.026Z,94800.00
2023-05-12T10:27:52.031Z,94802.00
2023-05-12T10:28:52.148Z,94800.00
2023-05-12T10:29:53.554Z,94806.00
2023-05-12T10:30:52.092Z,94802.00
2023-05-12T10:31:52.171Z,94804.00
2023-05-12T10:32:52.181Z,94798.00
2023-05-12T10:33:52.657Z,94798.00
2023-05-12T10:34:52.189Z,94798.00
2023-05-12T10:35:52.208Z,94794.00
2023-05-12T10:36:52.263Z,94798.00
2023-05-12T10:37:52.261Z,94802.00
2023-05-12T10:38:52.670Z,94800.00
2023-05-12T10:39:52.336Z,94800.00
2023-05-12T10:40:52.360Z,94798.00
2023-05-12T10:41:52.779Z,94804.00
2023-05-12T10:42:52.454Z,94800.00
2023-05-12T10:43:52.474Z,94798.00
2023-05-12T10:44:52.522Z,94800.00
2023-05-12T10:45:52.573Z,94800.00
2023-05-12T10:46:52.697Z,94794.00
2023-05-12T10:47:52.642Z,94792.00
2023-05-12T10:48:53.147Z,94788.00
2023-05-12T10:49:52.728Z,94794.00
2023-05-12T10:50:52.727Z,94788.00
2023-05-12T10:51:52.751Z,94790.00
2023-05-12T10:52:52.771Z,94792.00
2023-05-12T10:53:54.782Z,94785.00
2023-05-12T10:54:52.853Z,94788.00
2023-05-12T10:55:53.272Z,94788.00
2023-05-12T10:56:53.168Z,94792.00
2023-05-12T10:57:53.269Z,94792.00
2023-05-12T10:58:53.145Z,94788.00
2023-05-12T10:59:53.486Z,94790.00
2023-05-12T11:00:53.735Z,94787.00
2023-05-12T11:01:53.596Z,94787.00
2023-05-12T11:02:54.393Z,94785.00
2023-05-12T11:03:54.037Z,94788.00
2023-05-12T11:04:53.652Z,94785.00
2023-05-12T11:05:53.552Z,94785.00
2023-05-12T11:06:54.394Z,94783.00
2023-05-12T11:07:54.619Z,94783.00
2023-05-12T11:08:55.055Z,94781.00
2023-05-12T11:09:58.548Z,94783.00
2023-05-12T11:10:54.637Z,94779.00
2023-05-12T11:11:54.279Z,94779.00
2023-05-12T11:12:53.574Z,94779.00
2023-05-12T11:13:53.674Z,94775.00
2023-05-12T11:14:53.579Z,94777.00
2023-05-12T11:15:53.582Z,94779.00
2023-05-12T11:16:53.537Z,94779.00
2023-05-12T11:17:53.594Z,94779.00
2023-05-12T11:18:53.559Z,94777.00
2023-05-12T11:19:53.653Z,94781.00
2023-05-12T11:20:53.491Z,94775.00
2023-05-12T11:21:53.576Z,94779.00
2023-05-12T11:22:53.598Z,94777.00
2023-05-12T11:23:53.775Z,94777.00
2023-05-12T11:24:53.829Z,94775.00
2023-05-12T11:25:53.790Z,94775.00
2023-05-12T11:26:53.846Z,94775.00
2023-05-12T11:27:53.891Z,94775.00
2023-05-12T11:28:53.954Z,94779.00
2023-05-12T11:29:54.185Z,94775.00
2023-05-12T11:30:55.472Z,94769.00
2023-05-12T11:31:54.128Z,94777.00
2023-05-12T11:32:54.208Z,94773.00
2023-05-12T11:34:08.307Z,94767.00
2023-05-12T11:34:55.255Z,94769.00
2023-05-12T11:35:54.203Z,94765.00
2023-05-12T11:36:54.202Z,94765.00
2023-05-12T11:37:54.209Z,94763.00
2023-05-12T11:38:54.178Z,94761.00
2023-05-12T11:39:54.684Z,94763.00
2023-05-12T11:40:54.217Z,94759.00
2023-05-12T11:42:02.060Z,94761.00
2023-05-12T11:42:55.157Z,94761.00
2023-05-12T11:43:54.182Z,94761.00
2023-05-12T11:44:54.148Z,94757.00
2023-05-12T11:45:54.232Z,94757.00
2023-05-12T11:46:54.305Z,94759.00
2023-05-12T11:47:54.152Z,94751.00